sensor_id;sensor_type;location;lat;lon;timestamp;pressure;altitude;pressure_sealevel;temperature;humidity
53440;BME280;39333;47.044;15.080;2022-10-13T00:00:47;96928.66;;;13.72;71.92
53440;BME280;39333;47.044;15.080;2022-10-13T00:03:16;96923.00;;;13.68;71.93
53440;BME280;39333;47.044;15.080;2022-10-13T00:05:46;96918.13;;;13.60;71.78
53440;BME280;39333;47.044;15.080;2022-10-13T00:08:14;96918.34;;;13.58;71.92
53440;BME280;39333;47.044;15.080;2022-10-13T00:10:44;96926.25;;;13.53;71.84
53440;BME280;39333;47.044;15.080;2022-10-13T00:13:12;96929.72;;;13.54;71.90
53440;BME280;39333;47.044;15.080;2022-10-13T00:15:40;96918.84;;;13.39;72.42
53440;BME280;39333;47.044;15.080;2022-10-13T00:18:07;96913.75;;;13.37;72.33
53440;BME280;39333;47.044;15.080;2022-10-13T00:20:34;96911.81;;;13.32;72.47
53440;BME280;39333;47.044;15.080;2022-10-13T00:23:01;96913.97;;;13.19;72.49
53440;BME280;39333;47.044;15.080;2022-10-13T00:25:28;96916.47;;;13.09;72.98
53440;BME280;39333;47.044;15.080;2022-10-13T00:27:55;96906.63;;;13.09;73.02
53440;BME280;39333;47.044;15.080;2022-10-13T00:30:26;96908.56;;;13.14;72.84
53440;BME280;39333;47.044;15.080;2022-10-13T00:32:53;96907.75;;;13.13;72.13
53440;BME280;39333;47.044;15.080;2022-10-13T00:35:20;96895.81;;;13.16;71.89
53440;BME280;39333;47.044;15.080;2022-10-13T00:37:46;96901.16;;;13.16;71.45
53440;BME280;39333;47.044;15.080;2022-10-13T00:40:13;96899.25;;;13.00;71.91
53440;BME280;39333;47.044;15.080;2022-10-13T00:42:40;96901.84;;;12.94;71.82
53440;BME280;39333;47.044;15.080;2022-10-13T00:47:46;96895.78;;;12.99;72.30
53440;BME280;39333;47.044;15.080;2022-10-13T00:50:17;96902.56;;;12.90;71.84
53440;BME280;39333;47.044;15.080;2022-10-13T00:52:51;96903.03;;;12.87;72.15
53440;BME280;39333;47.044;15.080;2022-10-13T00:55:25;96898.91;;;12.79;72.32
53440;BME280;39333;47.044;15.080;2022-10-13T00:57:54;96898.81;;;12.74;72.52
53440;BME280;39333;47.044;15.080;2022-10-13T01:00:28;96892.56;;;12.80;72.53
53440;BME280;39333;47.044;15.080;2022-10-13T01:02:56;96890.84;;;12.74;72.48
53440;BME280;39333;47.044;15.080;2022-10-13T01:05:23;96885.97;;;12.71;71.74
53440;BME280;39333;47.044;15.080;2022-10-13T01:07:55;96879.91;;;12.59;71.85
53440;BME280;39333;47.044;15.080;2022-10-13T01:10:32;96876.50;;;12.47;72.26
53440;BME280;39333;47.044;15.080;2022-10-13T01:15:49;96879.63;;;12.44;71.93
53440;BME280;39333;47.044;15.080;2022-10-13T01:21:17;96878.16;;;12.36;72.03
53440;BME280;39333;47.044;15.080;2022-10-13T01:27:00;96871.66;;;12.15;72.43
53440;BME280;39333;47.044;15.080;2022-10-13T01:30:04;96879.69;;;12.20;72.57
53440;BME280;39333;47.044;15.080;2022-10-13T01:35:09;96865.06;;;12.06;72.71
53440;BME280;39333;47.044;15.080;2022-10-13T01:37:59;96870.50;;;12.11;72.31
53440;BME280;39333;47.044;15.080;2022-10-13T01:40:33;96875.34;;;12.14;71.67
53440;BME280;39333;47.044;15.080;2022-10-13T01:43:28;96873.03;;;12.06;71.80
53440;BME280;39333;47.044;15.080;2022-10-13T01:46:04;96865.09;;;11.95;71.52
53440;BME280;39333;47.044;15.080;2022-10-13T01:48:35;96856.78;;;11.91;72.12
53440;BME280;39333;47.044;15.080;2022-10-13T01:51:06;96859.22;;;11.93;72.07
53440;BME280;39333;47.044;15.080;2022-10-13T01:53:35;96861.25;;;12.02;71.86
53440;BME280;39333;47.044;15.080;2022-10-13T01:56:03;96855.94;;;12.02;71.76
53440;BME280;39333;47.044;15.080;2022-10-13T01:58:32;96848.81;;;11.91;71.88
53440;BME280;39333;47.044;15.080;2022-10-13T02:03:57;96848.50;;;11.76;72.11
53440;BME280;39333;47.044;15.080;2022-10-13T02:06:33;96841.81;;;11.85;72.10
53440;BME280;39333;47.044;15.080;2022-10-13T02:09:10;96852.88;;;11.82;71.53
53440;BME280;39333;47.044;15.080;2022-10-13T02:11:44;96842.72;;;11.79;71.44
53440;BME280;39333;47.044;15.080;2022-10-13T02:14:21;96842.97;;;11.77;71.03
53440;BME280;39333;47.044;15.080;2022-10-13T02:16:50;96847.31;;;11.72;71.42
53440;BME280;39333;47.044;15.080;2022-10-13T02:19:19;96845.03;;;11.64;71.23
53440;BME280;39333;47.044;15.080;2022-10-13T02:21:47;96845.94;;;11.57;71.63
53440;BME280;39333;47.044;15.080;2022-10-13T02:24:14;96847.91;;;11.62;71.16
53440;BME280;39333;47.044;15.080;2022-10-13T02:26:42;96838.09;;;11.39;70.98
53440;BME280;39333;47.044;15.080;2022-10-13T02:29:11;96853.25;;;11.50;71.61
53440;BME280;39333;47.044;15.080;2022-10-13T02:31:39;96848.84;;;11.44;71.29
53440;BME280;39333;47.044;15.080;2022-10-13T02:34:06;96851.06;;;11.47;71.11
53440;BME280;39333;47.044;15.080;2022-10-13T02:36:33;96841.25;;;11.48;71.10
53440;BME280;39333;47.044;15.080;2022-10-13T02:39:00;96848.97;;;11.49;71.08
53440;BME280;39333;47.044;15.080;2022-10-13T02:41:26;96850.47;;;11.45;71.01
53440;BME280;39333;47.044;15.080;2022-10-13T02:43:53;96844.34;;;11.45;70.73
53440;BME280;39333;47.044;15.080;2022-10-13T02:46:23;96841.72;;;11.33;70.28
53440;BME280;39333;47.044;15.080;2022-10-13T02:48:50;96840.28;;;11.07;70.83
53440;BME280;39333;47.044;15.080;2022-10-13T02:51:17;96848.59;;;10.99;71.40
53440;BME280;39333;47.044;15.080;2022-10-13T02:53:44;96839.47;;;11.07;71.76
53440;BME280;39333;47.044;15.080;2022-10-13T02:56:11;96839.97;;;11.15;71.03
53440;BME280;39333;47.044;15.080;2022-10-13T02:58:37;96844.91;;;11.12;71.16
53440;BME280;39333;47.044;15.080;2022-10-13T03:01:09;96833.84;;;11.15;70.85
53440;BME280;39333;47.044;15.080;2022-10-13T03:03:36;96831.56;;;11.18;70.96
53440;BME280;39333;47.044;15.080;2022-10-13T03:06:03;96844.25;;;11.16;70.85
53440;BME280;39333;47.044;15.080;2022-10-13T03:08:32;96841.34;;;11.06;70.64
53440;BME280;39333;47.044;15.080;2022-10-13T03:10:59;96837.88;;;11.06;70.65
53440;BME280;39333;47.044;15.080;2022-10-13T03:13:26;96835.94;;;11.01;70.24
53440;BME280;39333;47.044;15.080;2022-10-13T03:15:59;96837.28;;;10.92;70.17
53440;BME280;39333;47.044;15.080;2022-10-13T03:18:25;96830.25;;;10.86;70.90
53440;BME280;39333;47.044;15.080;2022-10-13T03:21:00;96838.53;;;10.78;70.80
53440;BME280;39333;47.044;15.080;2022-10-13T03:23:28;96841.03;;;10.61;71.01
53440;BME280;39333;47.044;15.080;2022-10-13T03:25:55;96832.22;;;10.49;71.41
53440;BME280;39333;47.044;15.080;2022-10-13T03:28:22;96836.53;;;10.62;71.53
53440;BME280;39333;47.044;15.080;2022-10-13T03:30:49;96833.06;;;10.61;70.92
53440;BME280;39333;47.044;15.080;2022-10-13T03:33:16;96833.22;;;10.66;71.09
53440;BME280;39333;47.044;15.080;2022-10-13T03:35:43;96837.03;;;10.70;71.00
53440;BME280;39333;47.044;15.080;2022-10-13T03:38:09;96845.06;;;10.64;70.81
53440;BME280;39333;47.044;15.080;2022-10-13T03:40:37;96840.34;;;10.54;70.89
53440;BME280;39333;47.044;15.080;2022-10-13T03:43:04;96842.66;;;10.62;70.43
53440;BME280;39333;47.044;15.080;2022-10-13T03:45:30;96837.78;;;10.59;70.58
53440;BME280;39333;47.044;15.080;2022-10-13T03:47:57;96844.13;;;10.58;70.39
53440;BME280;39333;47.044;15.080;2022-10-13T03:50:24;96838.94;;;10.51;70.77
53440;BME280;39333;47.044;15.080;2022-10-13T03:52:52;96839.84;;;10.57;70.52
53440;BME280;39333;47.044;15.080;2022-10-13T03:55:19;96841.25;;;10.60;70.23
53440;BME280;39333;47.044;15.080;2022-10-13T03:57:46;96834.16;;;10.42;69.99
53440;BME280;39333;47.044;15.080;2022-10-13T04:00:13;96841.59;;;10.22;70.62
53440;BME280;39333;47.044;15.080;2022-10-13T04:02:40;96843.78;;;10.25;70.57
53440;BME280;39333;47.044;15.080;2022-10-13T04:05:07;96841.03;;;10.31;71.04
53440;BME280;39333;47.044;15.080;2022-10-13T04:07:34;96840.47;;;10.29;70.71
53440;BME280;39333;47.044;15.080;2022-10-13T04:10:06;96834.72;;;10.32;70.46
53440;BME280;39333;47.044;15.080;2022-10-13T04:12:38;96831.25;;;10.32;70.61
53440;BME280;39333;47.044;15.080;2022-10-13T04:15:05;96834.72;;;10.32;70.35
53440;BME280;39333;47.044;15.080;2022-10-13T04:17:32;96824.34;;;10.31;70.23
53440;BME280;39333;47.044;15.080;2022-10-13T04:19:59;96816.38;;;10.31;70.19
53440;BME280;39333;47.044;15.080;2022-10-13T04:22:27;96828.47;;;10.27;70.49
53440;BME280;39333;47.044;15.080;2022-10-13T04:24:53;96835.91;;;10.18;69.72
53440;BME280;39333;47.044;15.080;2022-10-13T04:27:20;96829.06;;;10.10;70.33
53440;BME280;39333;47.044;15.080;2022-10-13T04:29:48;96830.41;;;10.01;70.54
53440;BME280;39333;47.044;15.080;2022-10-13T04:32:15;96839.38;;;10.00;70.65
53440;BME280;39333;47.044;15.080;2022-10-13T04:34:42;96836.59;;;9.95;70.94
53440;BME280;39333;47.044;15.080;2022-10-13T04:37:09;96836.00;;;9.93;70.67
53440;BME280;39333;47.044;15.080;2022-10-13T04:39:35;96842.69;;;9.96;70.88
53440;BME280;39333;47.044;15.080;2022-10-13T04:42:02;96834.09;;;9.82;70.80
53440;BME280;39333;47.044;15.080;2022-10-13T04:44:29;96838.00;;;9.79;71.46
53440;BME280;39333;47.044;15.080;2022-10-13T04:46:56;96841.44;;;9.80;70.48
53440;BME280;39333;47.044;15.080;2022-10-13T04:49:23;96840.97;;;9.71;71.09
53440;BME280;39333;47.044;15.080;2022-10-13T04:51:50;96836.59;;;9.77;70.86
53440;BME280;39333;47.044;15.080;2022-10-13T04:54:17;96841.38;;;9.87;70.77
53440;BME280;39333;47.044;15.080;2022-10-13T04:56:44;96836.00;;;9.75;70.62
53440;BME280;39333;47.044;15.080;2022-10-13T04:59:11;96843.50;;;9.78;70.63
53440;BME280;39333;47.044;15.080;2022-10-13T05:01:38;96850.22;;;9.80;70.63
53440;BME280;39333;47.044;15.080;2022-10-13T05:04:09;96836.75;;;9.64;70.62
53440;BME280;39333;47.044;15.080;2022-10-13T05:06:39;96841.28;;;9.75;70.84
53440;BME280;39333;47.044;15.080;2022-10-13T05:09:26;96843.81;;;9.70;70.21
53440;BME280;39333;47.044;15.080;2022-10-13T05:11:53;96839.84;;;9.61;70.20
53440;BME280;39333;47.044;15.080;2022-10-13T05:14:21;96842.94;;;9.58;70.53
53440;BME280;39333;47.044;15.080;2022-10-13T05:16:48;96837.50;;;9.53;70.46
53440;BME280;39333;47.044;15.080;2022-10-13T05:19:14;96839.59;;;9.44;71.18
53440;BME280;39333;47.044;15.080;2022-10-13T05:21:41;96852.94;;;9.56;71.01
53440;BME280;39333;47.044;15.080;2022-10-13T05:24:08;96842.13;;;9.57;70.80
53440;BME280;39333;47.044;15.080;2022-10-13T05:26:39;96843.38;;;9.55;70.44
53440;BME280;39333;47.044;15.080;2022-10-13T05:29:07;96839.84;;;9.61;70.91
53440;BME280;39333;47.044;15.080;2022-10-13T05:31:34;96841.22;;;9.63;70.64
53440;BME280;39333;47.044;15.080;2022-10-13T05:34:01;96842.84;;;9.64;70.45
53440;BME280;39333;47.044;15.080;2022-10-13T05:36:33;96839.56;;;9.69;70.69
53440;BME280;39333;47.044;15.080;2022-10-13T05:39:03;96851.66;;;9.76;70.41
53440;BME280;39333;47.044;15.080;2022-10-13T05:41:30;96849.13;;;9.70;70.47
53440;BME280;39333;47.044;15.080;2022-10-13T05:43:59;96847.50;;;9.69;70.20
53440;BME280;39333;47.044;15.080;2022-10-13T05:46:27;96850.94;;;9.69;70.79
53440;BME280;39333;47.044;15.080;2022-10-13T05:48:54;96846.69;;;9.68;70.71
53440;BME280;39333;47.044;15.080;2022-10-13T05:51:25;96842.19;;;9.69;70.82
53440;BME280;39333;47.044;15.080;2022-10-13T05:54:01;96846.97;;;9.78;70.85
53440;BME280;39333;47.044;15.080;2022-10-13T05:56:33;96854.78;;;9.73;71.36
53440;BME280;39333;47.044;15.080;2022-10-13T05:59:03;96856.16;;;9.76;71.07
53440;BME280;39333;47.044;15.080;2022-10-13T06:01:35;96865.13;;;9.93;71.16
53440;BME280;39333;47.044;15.080;2022-10-13T06:04:05;96858.56;;;10.14;70.92
53440;BME280;39333;47.044;15.080;2022-10-13T06:06:34;96852.53;;;10.25;70.77
53440;BME280;39333;47.044;15.080;2022-10-13T06:09:01;96854.06;;;10.33;70.19
53440;BME280;39333;47.044;15.080;2022-10-13T06:11:27;96854.78;;;10.40;70.28
53440;BME280;39333;47.044;15.080;2022-10-13T06:13:54;96849.91;;;10.55;69.98
53440;BME280;39333;47.044;15.080;2022-10-13T06:16:21;96853.50;;;10.72;70.06
53440;BME280;39333;47.044;15.080;2022-10-13T06:18:47;96855.16;;;10.85;69.94
53440;BME280;39333;47.044;15.080;2022-10-13T06:21:14;96860.72;;;10.95;70.01
53440;BME280;39333;47.044;15.080;2022-10-13T06:23:41;96850.59;;;11.04;69.96
53440;BME280;39333;47.044;15.080;2022-10-13T06:26:07;96848.16;;;11.14;70.30
53440;BME280;39333;47.044;15.080;2022-10-13T06:28:35;96855.53;;;11.12;71.08
53440;BME280;39333;47.044;15.080;2022-10-13T06:31:03;96854.63;;;11.18;70.85
53440;BME280;39333;47.044;15.080;2022-10-13T06:33:31;96851.16;;;11.29;70.54
53440;BME280;39333;47.044;15.080;2022-10-13T06:36:03;96857.84;;;11.43;70.38
53440;BME280;39333;47.044;15.080;2022-10-13T06:38:31;96854.16;;;11.56;70.70
53440;BME280;39333;47.044;15.080;2022-10-13T06:40:59;96846.50;;;11.71;70.04
53440;BME280;39333;47.044;15.080;2022-10-13T06:43:27;96849.28;;;11.88;70.10
53440;BME280;39333;47.044;15.080;2022-10-13T06:46:04;96846.38;;;12.01;69.92
53440;BME280;39333;47.044;15.080;2022-10-13T06:48:31;96840.69;;;12.09;70.17
53440;BME280;39333;47.044;15.080;2022-10-13T06:51:06;96852.28;;;12.32;70.03
53440;BME280;39333;47.044;15.080;2022-10-13T06:53:33;96845.72;;;12.51;68.61
53440;BME280;39333;47.044;15.080;2022-10-13T06:56:02;96844.94;;;12.67;67.86
53440;BME280;39333;47.044;15.080;2022-10-13T06:58:29;96842.00;;;12.80;67.68
53440;BME280;39333;47.044;15.080;2022-10-13T07:00:56;96840.06;;;12.92;67.59
53440;BME280;39333;47.044;15.080;2022-10-13T07:03:23;96848.63;;;13.11;66.87
53440;BME280;39333;47.044;15.080;2022-10-13T07:05:50;96844.69;;;13.30;66.29
53440;BME280;39333;47.044;15.080;2022-10-13T07:08:17;96842.78;;;13.48;65.06
53440;BME280;39333;47.044;15.080;2022-10-13T07:10:44;96838.50;;;13.63;64.57
53440;BME280;39333;47.044;15.080;2022-10-13T07:13:11;96834.84;;;13.70;64.29
53440;BME280;39333;47.044;15.080;2022-10-13T07:15:39;96835.00;;;13.80;64.35
53440;BME280;39333;47.044;15.080;2022-10-13T07:18:06;96839.19;;;13.97;64.96
53440;BME280;39333;47.044;15.080;2022-10-13T07:20:34;96828.22;;;14.16;64.92
53440;BME280;39333;47.044;15.080;2022-10-13T07:23:01;96824.38;;;14.28;64.72
53440;BME280;39333;47.044;15.080;2022-10-13T07:25:28;96824.28;;;14.45;65.08
53440;BME280;39333;47.044;15.080;2022-10-13T07:27:55;96824.19;;;14.62;64.06
53440;BME280;39333;47.044;15.080;2022-10-13T07:30:23;96819.66;;;14.62;64.21
53440;BME280;39333;47.044;15.080;2022-10-13T07:32:50;96823.75;;;14.70;64.23
53440;BME280;39333;47.044;15.080;2022-10-13T07:35:17;96815.69;;;14.65;64.33
53440;BME280;39333;47.044;15.080;2022-10-13T07:37:44;96821.28;;;14.95;64.56
53440;BME280;39333;47.044;15.080;2022-10-13T07:40:11;96813.44;;;15.16;62.92
53440;BME280;39333;47.044;15.080;2022-10-13T07:42:37;96815.69;;;15.34;63.01
53440;BME280;39333;47.044;15.080;2022-10-13T07:45:05;96809.34;;;15.40;63.11
53440;BME280;39333;47.044;15.080;2022-10-13T07:47:31;96809.47;;;15.60;63.23
53440;BME280;39333;47.044;15.080;2022-10-13T07:49:58;96805.81;;;15.71;61.97
53440;BME280;39333;47.044;15.080;2022-10-13T07:52:25;96796.50;;;15.84;61.70
53440;BME280;39333;47.044;15.080;2022-10-13T07:54:52;96798.44;;;15.99;62.34
53440;BME280;39333;47.044;15.080;2022-10-13T07:57:19;96801.13;;;16.09;61.74
53440;BME280;39333;47.044;15.080;2022-10-13T07:59:46;96798.75;;;16.18;63.39
53440;BME280;39333;47.044;15.080;2022-10-13T08:02:14;96800.44;;;16.39;61.03
53440;BME280;39333;47.044;15.080;2022-10-13T08:04:40;96797.78;;;16.54;61.02
53440;BME280;39333;47.044;15.080;2022-10-13T08:07:07;96798.63;;;16.75;61.96
53440;BME280;39333;47.044;15.080;2022-10-13T08:09:34;96798.91;;;16.89;60.20
53440;BME280;39333;47.044;15.080;2022-10-13T08:12:01;96795.44;;;17.03;59.87
53440;BME280;39333;47.044;15.080;2022-10-13T08:14:29;96790.34;;;17.17;59.84
53440;BME280;39333;47.044;15.080;2022-10-13T08:16:56;96796.47;;;17.33;58.71
53440;BME280;39333;47.044;15.080;2022-10-13T08:19:23;96785.19;;;17.46;59.69
53440;BME280;39333;47.044;15.080;2022-10-13T08:21:52;96791.59;;;17.55;58.62
53440;BME280;39333;47.044;15.080;2022-10-13T08:24:25;96787.56;;;17.63;57.93
53440;BME280;39333;47.044;15.080;2022-10-13T08:26:52;96789.09;;;17.94;58.13
53440;BME280;39333;47.044;15.080;2022-10-13T08:29:19;96782.78;;;18.24;57.89
53440;BME280;39333;47.044;15.080;2022-10-13T08:31:48;96780.81;;;18.40;55.05
53440;BME280;39333;47.044;15.080;2022-10-13T08:34:24;96773.97;;;18.63;55.88
53440;BME280;39333;47.044;15.080;2022-10-13T08:36:52;96778.72;;;18.76;55.15
53440;BME280;39333;47.044;15.080;2022-10-13T08:39:22;96766.91;;;18.77;56.10
53440;BME280;39333;47.044;15.080;2022-10-13T08:41:50;96779.59;;;19.00;55.89
53440;BME280;39333;47.044;15.080;2022-10-13T08:44:39;96774.84;;;19.21;55.14
53440;BME280;39333;47.044;15.080;2022-10-13T08:49:59;96771.34;;;19.49;53.91
53440;BME280;39333;47.044;15.080;2022-10-13T08:52:41;96768.50;;;19.65;55.07
53440;BME280;39333;47.044;15.080;2022-10-13T08:55:19;96766.56;;;19.70;55.32
53440;BME280;39333;47.044;15.080;2022-10-13T08:57:47;96765.44;;;19.76;55.09
53440;BME280;39333;47.044;15.080;2022-10-13T09:00:15;96765.28;;;19.86;53.47
53440;BME280;39333;47.044;15.080;2022-10-13T09:02:48;96772.94;;;19.98;52.23
53440;BME280;39333;47.044;15.080;2022-10-13T09:05:30;96765.81;;;19.88;52.28
53440;BME280;39333;47.044;15.080;2022-10-13T09:08:03;96763.50;;;20.01;51.41
53440;BME280;39333;47.044;15.080;2022-10-13T09:10:46;96765.69;;;19.99;53.08
53440;BME280;39333;47.044;15.080;2022-10-13T09:13:17;96762.63;;;20.29;51.85
53440;BME280;39333;47.044;15.080;2022-10-13T09:15:46;96764.38;;;20.57;52.71
53440;BME280;39333;47.044;15.080;2022-10-13T09:18:15;96759.84;;;20.72;53.77
53440;BME280;39333;47.044;15.080;2022-10-13T09:20:41;96751.31;;;20.83;51.48
53440;BME280;39333;47.044;15.080;2022-10-13T09:23:21;96749.16;;;20.67;49.56
53440;BME280;39333;47.044;15.080;2022-10-13T09:25:50;96748.63;;;20.27;52.50
53440;BME280;39333;47.044;15.080;2022-10-13T09:28:29;96747.59;;;20.23;52.70
53440;BME280;39333;47.044;15.080;2022-10-13T09:31:25;96750.06;;;20.19;50.87
53440;BME280;39333;47.044;15.080;2022-10-13T09:34:01;96742.75;;;19.82;51.57
53440;BME280;39333;47.044;15.080;2022-10-13T09:36:28;96740.31;;;20.23;51.79
53440;BME280;39333;47.044;15.080;2022-10-13T09:39:06;96744.41;;;20.21;53.36
53440;BME280;39333;47.044;15.080;2022-10-13T09:41:35;96743.25;;;20.46;54.22
53440;BME280;39333;47.044;15.080;2022-10-13T09:44:11;96747.75;;;20.13;52.59
53440;BME280;39333;47.044;15.080;2022-10-13T09:46:49;96743.34;;;20.41;53.60
53440;BME280;39333;47.044;15.080;2022-10-13T09:49:38;96750.50;;;20.08;53.69
53440;BME280;39333;47.044;15.080;2022-10-13T09:52:11;96744.22;;;20.36;51.20
53440;BME280;39333;47.044;15.080;2022-10-13T09:54:49;96757.56;;;20.79;54.34
53440;BME280;39333;47.044;15.080;2022-10-13T09:59:52;96742.38;;;21.34;52.77
53440;BME280;39333;47.044;15.080;2022-10-13T10:04:58;96742.91;;;21.91;52.86
53440;BME280;39333;47.044;15.080;2022-10-13T10:07:28;96740.28;;;21.86;49.91
53440;BME280;39333;47.044;15.080;2022-10-13T10:10:00;96740.50;;;21.89;49.51
53440;BME280;39333;47.044;15.080;2022-10-13T10:12:31;96740.00;;;21.60;53.29
53440;BME280;39333;47.044;15.080;2022-10-13T10:15:08;96729.59;;;20.42;49.30
53440;BME280;39333;47.044;15.080;2022-10-13T10:17:56;96730.44;;;20.19;56.52
53440;BME280;39333;47.044;15.080;2022-10-13T10:23:20;96730.41;;;20.94;57.69
53440;BME280;39333;47.044;15.080;2022-10-13T10:25:51;96725.63;;;21.18;53.65
53440;BME280;39333;47.044;15.080;2022-10-13T10:28:27;96731.91;;;21.87;53.78
53440;BME280;39333;47.044;15.080;2022-10-13T10:31:09;96727.88;;;21.98;51.74
53440;BME280;39333;47.044;15.080;2022-10-13T10:34:01;96720.84;;;22.25;50.09
53440;BME280;39333;47.044;15.080;2022-10-13T10:39:36;96709.75;;;22.85;50.60
53440;BME280;39333;47.044;15.080;2022-10-13T10:44:46;96707.47;;;23.00;53.78
53440;BME280;39333;47.044;15.080;2022-10-13T10:47:41;96705.50;;;23.23;51.45
53440;BME280;39333;47.044;15.080;2022-10-13T10:50:13;96705.88;;;23.61;49.78
53440;BME280;39333;47.044;15.080;2022-10-13T10:53:15;96695.88;;;23.88;53.00
53440;BME280;39333;47.044;15.080;2022-10-13T10:56:06;96690.81;;;23.95;50.90
53440;BME280;39333;47.044;15.080;2022-10-13T10:59:21;96683.50;;;23.95;47.38
53440;BME280;39333;47.044;15.080;2022-10-13T11:01:41;96683.53;;;23.56;54.71
53440;BME280;39333;47.044;15.080;2022-10-13T11:06:58;96676.75;;;22.52;45.77
53440;BME280;39333;47.044;15.080;2022-10-13T11:15:01;96669.06;;;22.67;54.58
53440;BME280;39333;47.044;15.080;2022-10-13T11:17:30;96657.38;;;23.43;53.87
53440;BME280;39333;47.044;15.080;2022-10-13T11:19:58;96660.50;;;23.67;46.42
53440;BME280;39333;47.044;15.080;2022-10-13T11:22:27;96656.69;;;23.28;42.66
53440;BME280;39333;47.044;15.080;2022-10-13T11:25:01;96660.59;;;22.83;46.43
53440;BME280;39333;47.044;15.080;2022-10-13T11:27:38;96663.00;;;23.15;45.27
53440;BME280;39333;47.044;15.080;2022-10-13T11:31:21;96657.34;;;22.72;52.96
53440;BME280;39333;47.044;15.080;2022-10-13T11:36:31;96646.00;;;23.63;53.59
53440;BME280;39333;47.044;15.080;2022-10-13T11:44:34;96635.84;;;23.68;48.60
53440;BME280;39333;47.044;15.080;2022-10-13T11:52:47;96632.22;;;24.16;49.06
53440;BME280;39333;47.044;15.080;2022-10-13T11:55:31;96629.84;;;24.49;50.99
53440;BME280;39333;47.044;15.080;2022-10-13T12:00:52;96618.00;;;23.67;54.69
53440;BME280;39333;47.044;15.080;2022-10-13T12:03:27;96621.69;;;23.97;50.39
53440;BME280;39333;47.044;15.080;2022-10-13T12:05:58;96614.53;;;24.19;46.20
53440;BME280;39333;47.044;15.080;2022-10-13T12:08:27;96610.88;;;24.23;49.02
53440;BME280;39333;47.044;15.080;2022-10-13T12:10:56;96607.66;;;23.95;49.70
53440;BME280;39333;47.044;15.080;2022-10-13T12:13:29;96600.06;;;23.32;47.11
53440;BME280;39333;47.044;15.080;2022-10-13T12:16:02;96595.25;;;23.20;53.04
53440;BME280;39333;47.044;15.080;2022-10-13T12:18:37;96597.75;;;23.73;53.84
53440;BME280;39333;47.044;15.080;2022-10-13T12:21:19;96596.19;;;24.16;46.25
53440;BME280;39333;47.044;15.080;2022-10-13T12:23:48;96598.09;;;24.41;48.32
53440;BME280;39333;47.044;15.080;2022-10-13T12:26:20;96600.50;;;22.86;45.90
53440;BME280;39333;47.044;15.080;2022-10-13T12:28:51;96588.31;;;23.06;52.89
53440;BME280;39333;47.044;15.080;2022-10-13T12:31:37;96592.69;;;23.81;52.76
53440;BME280;39333;47.044;15.080;2022-10-13T12:34:25;96587.72;;;23.74;50.50
53440;BME280;39333;47.044;15.080;2022-10-13T12:37:03;96594.59;;;24.49;49.49
53440;BME280;39333;47.044;15.080;2022-10-13T12:39:32;96601.31;;;25.07;49.12
53440;BME280;39333;47.044;15.080;2022-10-13T12:42:01;96591.31;;;25.28;46.69
53440;BME280;39333;47.044;15.080;2022-10-13T12:44:30;96590.84;;;25.56;49.18
53440;BME280;39333;47.044;15.080;2022-10-13T12:46:59;96581.97;;;24.62;44.71
53440;BME280;39333;47.044;15.080;2022-10-13T12:49:29;96595.00;;;24.68;52.06
53440;BME280;39333;47.044;15.080;2022-10-13T12:52:04;96582.78;;;25.09;50.32
53440;BME280;39333;47.044;15.080;2022-10-13T12:54:33;96577.91;;;24.94;48.82
53440;BME280;39333;47.044;15.080;2022-10-13T12:57:05;96576.56;;;25.38;48.60
53440;BME280;39333;47.044;15.080;2022-10-13T12:59:41;96579.22;;;25.17;46.24
53440;BME280;39333;47.044;15.080;2022-10-13T13:02:24;96571.63;;;24.55;44.88
53440;BME280;39333;47.044;15.080;2022-10-13T13:04:53;96580.75;;;23.90;45.63
53440;BME280;39333;47.044;15.080;2022-10-13T13:07:34;96572.69;;;23.33;51.09
53440;BME280;39333;47.044;15.080;2022-10-13T13:10:18;96579.47;;;24.14;49.06
53440;BME280;39333;47.044;15.080;2022-10-13T13:12:47;96577.22;;;24.50;51.08
53440;BME280;39333;47.044;15.080;2022-10-13T13:15:29;96577.25;;;24.88;46.99
53440;BME280;39333;47.044;15.080;2022-10-13T13:20:53;96578.25;;;24.84;51.10
53440;BME280;39333;47.044;15.080;2022-10-13T13:23:20;96580.16;;;25.21;49.74
53440;BME280;39333;47.044;15.080;2022-10-13T13:28:48;96584.69;;;25.47;46.68
53440;BME280;39333;47.044;15.080;2022-10-13T13:31:17;96579.19;;;25.64;46.98
53440;BME280;39333;47.044;15.080;2022-10-13T13:33:45;96579.72;;;25.49;44.60
53440;BME280;39333;47.044;15.080;2022-10-13T13:36:24;96576.72;;;25.71;47.85
53440;BME280;39333;47.044;15.080;2022-10-13T13:38:52;96562.53;;;25.06;42.16
53440;BME280;39333;47.044;15.080;2022-10-13T13:41:19;96578.94;;;24.55;50.28
53440;BME280;39333;47.044;15.080;2022-10-13T13:43:47;96582.63;;;25.05;48.50
53440;BME280;39333;47.044;15.080;2022-10-13T13:46:20;96572.59;;;23.56;45.22
53440;BME280;39333;47.044;15.080;2022-10-13T13:48:47;96579.63;;;22.78;51.57
53440;BME280;39333;47.044;15.080;2022-10-13T13:51:14;96563.84;;;23.59;51.99
53440;BME280;39333;47.044;15.080;2022-10-13T13:53:42;96566.09;;;23.83;44.44
53440;BME280;39333;47.044;15.080;2022-10-13T13:56:15;96561.94;;;23.11;46.46
53440;BME280;39333;47.044;15.080;2022-10-13T13:58:43;96567.59;;;23.32;51.45
53440;BME280;39333;47.044;15.080;2022-10-13T14:01:11;96567.50;;;23.71;51.62
53440;BME280;39333;47.044;15.080;2022-10-13T14:03:38;96566.22;;;23.52;48.12
53440;BME280;39333;47.044;15.080;2022-10-13T14:06:07;96566.16;;;23.43;50.48
53440;BME280;39333;47.044;15.080;2022-10-13T14:08:34;96560.94;;;23.47;48.86
53440;BME280;39333;47.044;15.080;2022-10-13T14:11:08;96558.41;;;23.50;49.90
53440;BME280;39333;47.044;15.080;2022-10-13T14:13:35;96563.03;;;23.58;51.88